sensor_id;sensor_type;location;lat;lon;timestamp;temperature;humidity
67942;SHT31;54731;42.600;23.476;2023-11-21T00:00:25;5.09;74.22
67942;SHT31;54731;42.600;23.476;2023-11-21T00:02:50;5.09;74.44
67942;SHT31;54731;42.600;23.476;2023-11-21T00:05:16;5.04;74.47
67942;SHT31;54731;42.600;23.476;2023-11-21T00:07:41;5.08;74.62
67942;SHT31;54731;42.600;23.476;2023-11-21T00:10:07;5.09;74.28
67942;SHT31;54731;42.600;23.476;2023-11-21T00:12:36;5.12;74.18
67942;SHT31;54731;42.600;23.476;2023-11-21T00:15:02;5.01;74.54
67942;SHT31;54731;42.600;23.476;2023-11-21T00:17:28;4.99;75.06
67942;SHT31;54731;42.600;23.476;2023-11-21T00:19:53;4.98;75.43
67942;SHT31;54731;42.600;23.476;2023-11-21T00:22:19;4.89;76.07
67942;SHT31;54731;42.600;23.476;2023-11-21T00:24:45;4.82;76.48
67942;SHT31;54731;42.600;23.476;2023-11-21T00:27:10;4.84;76.71
67942;SHT31;54731;42.600;23.476;2023-11-21T00:29:35;4.78;76.86
67942;SHT31;54731;42.600;23.476;2023-11-21T00:32:01;4.75;77.11
67942;SHT31;54731;42.600;23.476;2023-11-21T00:34:27;4.72;77.39
67942;SHT31;54731;42.600;23.476;2023-11-21T00:36:52;4.70;77.42
67942;SHT31;54731;42.600;23.476;2023-11-21T00:39:17;4.67;77.40
67942;SHT31;54731;42.600;23.476;2023-11-21T00:41:43;4.71;77.27
67942;SHT31;54731;42.600;23.476;2023-11-21T00:44:08;4.71;77.20
67942;SHT31;54731;42.600;23.476;2023-11-21T00:46:33;4.65;77.47
67942;SHT31;54731;42.600;23.476;2023-11-21T00:48:59;4.68;77.45
67942;SHT31;54731;42.600;23.476;2023-11-21T00:51:24;4.72;77.22
67942;SHT31;54731;42.600;23.476;2023-11-21T00:53:49;4.74;77.07
67942;SHT31;54731;42.600;23.476;2023-11-21T00:56:14;4.64;77.31
67942;SHT31;54731;42.600;23.476;2023-11-21T00:58:40;4.64;77.48
67942;SHT31;54731;42.600;23.476;2023-11-21T01:01:05;4.68;77.23
67942;SHT31;54731;42.600;23.476;2023-11-21T01:03:30;4.65;77.38
67942;SHT31;54731;42.600;23.476;2023-11-21T01:05:56;4.60;77.51
67942;SHT31;54731;42.600;23.476;2023-11-21T01:08:21;4.49;77.54
67942;SHT31;54731;42.600;23.476;2023-11-21T01:10:46;4.46;77.59
67942;SHT31;54731;42.600;23.476;2023-11-21T01:13:12;4.46;77.92
67942;SHT31;54731;42.600;23.476;2023-11-21T01:15:37;4.39;77.91
67942;SHT31;54731;42.600;23.476;2023-11-21T01:18:02;4.36;77.90
67942;SHT31;54731;42.600;23.476;2023-11-21T01:20:28;4.32;77.96
67942;SHT31;54731;42.600;23.476;2023-11-21T01:22:53;4.21;78.04
67942;SHT31;54731;42.600;23.476;2023-11-21T01:25:18;4.16;78.18
67942;SHT31;54731;42.600;23.476;2023-11-21T01:27:43;4.26;77.91
67942;SHT31;54731;42.600;23.476;2023-11-21T01:30:09;4.29;77.70
67942;SHT31;54731;42.600;23.476;2023-11-21T01:32:35;4.23;77.85
67942;SHT31;54731;42.600;23.476;2023-11-21T01:35:00;4.17;77.98
67942;SHT31;54731;42.600;23.476;2023-11-21T01:37:26;4.14;78.11
67942;SHT31;54731;42.600;23.476;2023-11-21T01:39:51;4.07;78.38
67942;SHT31;54731;42.600;23.476;2023-11-21T01:42:16;4.05;78.38
67942;SHT31;54731;42.600;23.476;2023-11-21T01:44:42;4.03;78.35
67942;SHT31;54731;42.600;23.476;2023-11-21T01:47:08;3.95;78.56
67942;SHT31;54731;42.600;23.476;2023-11-21T01:49:34;4.00;78.51
67942;SHT31;54731;42.600;23.476;2023-11-21T01:51:59;4.00;78.36
67942;SHT31;54731;42.600;23.476;2023-11-21T01:54:25;3.99;78.38
67942;SHT31;54731;42.600;23.476;2023-11-21T01:56:51;3.93;78.40
67942;SHT31;54731;42.600;23.476;2023-11-21T01:59:20;3.87;78.56
67942;SHT31;54731;42.600;23.476;2023-11-21T02:01:46;3.81;78.61
67942;SHT31;54731;42.600;23.476;2023-11-21T02:04:12;3.81;78.83
67942;SHT31;54731;42.600;23.476;2023-11-21T02:06:37;3.78;78.96
67942;SHT31;54731;42.600;23.476;2023-11-21T02:09:02;3.81;78.86
67942;SHT31;54731;42.600;23.476;2023-11-21T02:11:28;3.81;79.03
67942;SHT31;54731;42.600;23.476;2023-11-21T02:13:53;3.79;79.12
67942;SHT31;54731;42.600;23.476;2023-11-21T02:16:19;3.76;79.26
67942;SHT31;54731;42.600;23.476;2023-11-21T02:18:44;3.82;79.23
67942;SHT31;54731;42.600;23.476;2023-11-21T02:21:09;3.83;78.99
67942;SHT31;54731;42.600;23.476;2023-11-21T02:23:35;3.78;79.30
67942;SHT31;54731;42.600;23.476;2023-11-21T02:26:00;3.78;79.33
67942;SHT31;54731;42.600;23.476;2023-11-21T02:28:25;3.66;79.63
67942;SHT31;54731;42.600;23.476;2023-11-21T02:30:54;3.68;79.73
67942;SHT31;54731;42.600;23.476;2023-11-21T02:33:19;3.61;80.15
67942;SHT31;54731;42.600;23.476;2023-11-21T02:35:44;3.59;80.38
67942;SHT31;54731;42.600;23.476;2023-11-21T02:38:10;3.58;80.41
67942;SHT31;54731;42.600;23.476;2023-11-21T02:40:35;3.55;80.37
67942;SHT31;54731;42.600;23.476;2023-11-21T02:43:00;3.59;80.39
67942;SHT31;54731;42.600;23.476;2023-11-21T02:45:25;3.58;80.32
67942;SHT31;54731;42.600;23.476;2023-11-21T02:47:51;3.56;80.34
67942;SHT31;54731;42.600;23.476;2023-11-21T02:50:16;3.62;80.30
67942;SHT31;54731;42.600;23.476;2023-11-21T02:52:41;3.55;80.20
67942;SHT31;54731;42.600;23.476;2023-11-21T02:55:07;3.62;80.16
67942;SHT31;54731;42.600;23.476;2023-11-21T02:57:33;3.62;80.04
67942;SHT31;54731;42.600;23.476;2023-11-21T02:59:58;3.52;80.29
67942;SHT31;54731;42.600;23.476;2023-11-21T03:02:24;3.48;80.32
67942;SHT31;54731;42.600;23.476;2023-11-21T03:04:49;3.46;80.30
67942;SHT31;54731;42.600;23.476;2023-11-21T03:07:15;3.50;80.18
67942;SHT31;54731;42.600;23.476;2023-11-21T03:09:40;3.44;80.19
67942;SHT31;54731;42.600;23.476;2023-11-21T03:12:06;3.36;80.44
67942;SHT31;54731;42.600;23.476;2023-11-21T03:14:31;3.39;80.52
67942;SHT31;54731;42.600;23.476;2023-11-21T03:16:56;3.34;80.48
67942;SHT31;54731;42.600;23.476;2023-11-21T03:19:22;3.30;80.49
67942;SHT31;54731;42.600;23.476;2023-11-21T03:21:47;3.27;80.47
67942;SHT31;54731;42.600;23.476;2023-11-21T03:24:12;3.27;80.45
67942;SHT31;54731;42.600;23.476;2023-11-21T03:26:37;3.20;81.14
67942;SHT31;54731;42.600;23.476;2023-11-21T03:29:03;3.13;81.43
67942;SHT31;54731;42.600;23.476;2023-11-21T03:31:28;3.18;81.39
67942;SHT31;54731;42.600;23.476;2023-11-21T03:33:53;3.25;81.31
67942;SHT31;54731;42.600;23.476;2023-11-21T03:36:19;3.21;81.41
67942;SHT31;54731;42.600;23.476;2023-11-21T03:38:45;3.24;81.51
67942;SHT31;54731;42.600;23.476;2023-11-21T03:41:10;3.25;81.38
67942;SHT31;54731;42.600;23.476;2023-11-21T03:43:36;3.23;81.50
67942;SHT31;54731;42.600;23.476;2023-11-21T03:46:02;3.24;81.60
67942;SHT31;54731;42.600;23.476;2023-11-21T03:48:27;3.25;81.64
67942;SHT31;54731;42.600;23.476;2023-11-21T03:50:53;3.20;81.76
67942;SHT31;54731;42.600;23.476;2023-11-21T03:53:18;3.17;81.89
67942;SHT31;54731;42.600;23.476;2023-11-21T03:55:43;3.07;82.33
67942;SHT31;54731;42.600;23.476;2023-11-21T03:58:08;3.07;82.32
67942;SHT31;54731;42.600;23.476;2023-11-21T04:00:34;3.10;82.21
67942;SHT31;54731;42.600;23.476;2023-11-21T04:02:59;3.11;82.12
67942;SHT31;54731;42.600;23.476;2023-11-21T04:05:24;3.08;82.03
67942;SHT31;54731;42.600;23.476;2023-11-21T04:07:50;3.08;82.28
67942;SHT31;54731;42.600;23.476;2023-11-21T04:10:15;3.13;82.32
67942;SHT31;54731;42.600;23.476;2023-11-21T04:12:41;3.14;82.21
67942;SHT31;54731;42.600;23.476;2023-11-21T04:15:06;3.20;82.25
67942;SHT31;54731;42.600;23.476;2023-11-21T04:17:32;3.28;82.04
67942;SHT31;54731;42.600;23.476;2023-11-21T04:19:57;3.18;82.32
67942;SHT31;54731;42.600;23.476;2023-11-21T04:22:22;3.13;82.61
67942;SHT31;54731;42.600;23.476;2023-11-21T04:24:48;3.14;82.69
67942;SHT31;54731;42.600;23.476;2023-11-21T04:27:13;3.14;82.73
67942;SHT31;54731;42.600;23.476;2023-11-21T04:29:38;3.18;82.72
67942;SHT31;54731;42.600;23.476;2023-11-21T04:32:04;3.17;82.75
67942;SHT31;54731;42.600;23.476;2023-11-21T04:34:29;3.15;82.79
67942;SHT31;54731;42.600;23.476;2023-11-21T04:36:54;3.17;82.74
67942;SHT31;54731;42.600;23.476;2023-11-21T04:39:20;3.13;82.86
67942;SHT31;54731;42.600;23.476;2023-11-21T04:41:45;3.10;82.99
67942;SHT31;54731;42.600;23.476;2023-11-21T04:44:10;3.07;83.12
67942;SHT31;54731;42.600;23.476;2023-11-21T04:46:36;3.10;83.15
67942;SHT31;54731;42.600;23.476;2023-11-21T04:49:01;3.14;82.88
67942;SHT31;54731;42.600;23.476;2023-11-21T04:51:26;3.24;82.71
67942;SHT31;54731;42.600;23.476;2023-11-21T04:53:51;3.24;82.59
67942;SHT31;54731;42.600;23.476;2023-11-21T04:56:17;3.21;82.71
67942;SHT31;54731;42.600;23.476;2023-11-21T04:58:42;3.15;82.85
67942;SHT31;54731;42.600;23.476;2023-11-21T05:01:08;3.18;82.85
67942;SHT31;54731;42.600;23.476;2023-11-21T05:03:33;3.18;82.77
67942;SHT31;54731;42.600;23.476;2023-11-21T05:05:59;3.13;82.87
67942;SHT31;54731;42.600;23.476;2023-11-21T05:08:25;3.08;82.88
67942;SHT31;54731;42.600;23.476;2023-11-21T05:10:50;3.13;82.94
67942;SHT31;54731;42.600;23.476;2023-11-21T05:13:15;3.13;82.83
67942;SHT31;54731;42.600;23.476;2023-11-21T05:15:41;3.10;83.00
67942;SHT31;54731;42.600;23.476;2023-11-21T05:18:06;3.08;83.06
67942;SHT31;54731;42.600;23.476;2023-11-21T05:20:31;3.10;83.18
67942;SHT31;54731;42.600;23.476;2023-11-21T05:22:56;3.11;83.23
67942;SHT31;54731;42.600;23.476;2023-11-21T05:25:23;3.11;83.27
67942;SHT31;54731;42.600;23.476;2023-11-21T05:27:48;3.10;83.37
67942;SHT31;54731;42.600;23.476;2023-11-21T05:30:14;3.27;83.25
67942;SHT31;54731;42.600;23.476;2023-11-21T05:32:40;3.17;83.45
67942;SHT31;54731;42.600;23.476;2023-11-21T05:35:06;3.24;83.50
67942;SHT31;54731;42.600;23.476;2023-11-21T05:37:31;3.27;83.51
67942;SHT31;54731;42.600;23.476;2023-11-21T05:39:56;3.38;83.35
67942;SHT31;54731;42.600;23.476;2023-11-21T05:42:22;3.36;83.29
67942;SHT31;54731;42.600;23.476;2023-11-21T05:44:47;3.31;83.43
67942;SHT31;54731;42.600;23.476;2023-11-21T05:47:13;3.28;83.48
67942;SHT31;54731;42.600;23.476;2023-11-21T05:49:38;3.34;83.28
67942;SHT31;54731;42.600;23.476;2023-11-21T05:52:04;3.31;83.19
67942;SHT31;54731;42.600;23.476;2023-11-21T05:54:29;3.28;83.25
67942;SHT31;54731;42.600;23.476;2023-11-21T05:56:54;3.31;83.24
67942;SHT31;54731;42.600;23.476;2023-11-21T05:59:20;3.35;83.16
67942;SHT31;54731;42.600;23.476;2023-11-21T06:01:45;3.32;83.24
67942;SHT31;54731;42.600;23.476;2023-11-21T06:04:10;3.34;83.21
67942;SHT31;54731;42.600;23.476;2023-11-21T06:06:36;3.34;83.28
67942;SHT31;54731;42.600;23.476;2023-11-21T06:09:01;3.36;83.12
67942;SHT31;54731;42.600;23.476;2023-11-21T06:11:27;3.35;83.21
67942;SHT31;54731;42.600;23.476;2023-11-21T06:13:52;3.32;83.21
67942;SHT31;54731;42.600;23.476;2023-11-21T06:16:17;3.32;83.23
67942;SHT31;54731;42.600;23.476;2023-11-21T06:18:43;3.41;83.31
67942;SHT31;54731;42.600;23.476;2023-11-21T06:21:11;3.42;83.24
67942;SHT31;54731;42.600;23.476;2023-11-21T06:23:37;3.44;83.16
67942;SHT31;54731;42.600;23.476;2023-11-21T06:26:03;3.51;83.14
67942;SHT31;54731;42.600;23.476;2023-11-21T06:28:28;3.55;82.89
67942;SHT31;54731;42.600;23.476;2023-11-21T06:30:54;3.50;83.14
67942;SHT31;54731;42.600;23.476;2023-11-21T06:33:19;3.51;83.19
67942;SHT31;54731;42.600;23.476;2023-11-21T06:35:44;3.61;83.21
67942;SHT31;54731;42.600;23.476;2023-11-21T06:38:10;3.62;82.98
67942;SHT31;54731;42.600;23.476;2023-11-21T06:40:35;3.64;83.10
67942;SHT31;54731;42.600;23.476;2023-11-21T06:43:01;3.62;83.05
67942;SHT31;54731;42.600;23.476;2023-11-21T06:45:26;3.66;83.04
67942;SHT31;54731;42.600;23.476;2023-11-21T06:47:51;3.68;83.06
67942;SHT31;54731;42.600;23.476;2023-11-21T06:50:17;3.72;83.12
67942;SHT31;54731;42.600;23.476;2023-11-21T06:52:42;3.74;83.09
67942;SHT31;54731;42.600;23.476;2023-11-21T06:55:08;3.74;83.12
67942;SHT31;54731;42.600;23.476;2023-11-21T06:57:33;3.79;83.00
67942;SHT31;54731;42.600;23.476;2023-11-21T06:59:59;3.83;82.60
67942;SHT31;54731;42.600;23.476;2023-11-21T07:02:24;3.89;82.46
67942;SHT31;54731;42.600;23.476;2023-11-21T07:04:49;3.90;82.30
67942;SHT31;54731;42.600;23.476;2023-11-21T07:07:15;3.96;82.26
67942;SHT31;54731;42.600;23.476;2023-11-21T07:09:40;4.03;82.17
67942;SHT31;54731;42.600;23.476;2023-11-21T07:12:06;4.06;82.03
67942;SHT31;54731;42.600;23.476;2023-11-21T07:14:31;4.13;81.52
67942;SHT31;54731;42.600;23.476;2023-11-21T07:16:56;4.16;81.37
67942;SHT31;54731;42.600;23.476;2023-11-21T07:19:22;4.23;81.13
67942;SHT31;54731;42.600;23.476;2023-11-21T07:21:47;4.26;80.77
67942;SHT31;54731;42.600;23.476;2023-11-21T07:24:12;4.30;80.63
67942;SHT31;54731;42.600;23.476;2023-11-21T07:26:38;4.34;80.58
67942;SHT31;54731;42.600;23.476;2023-11-21T07:29:03;4.36;80.56
67942;SHT31;54731;42.600;23.476;2023-11-21T07:31:29;4.41;80.48
67942;SHT31;54731;42.600;23.476;2023-11-21T07:33:54;4.47;80.28
67942;SHT31;54731;42.600;23.476;2023-11-21T07:36:20;4.49;80.09
67942;SHT31;54731;42.600;23.476;2023-11-21T07:38:45;4.50;80.09
67942;SHT31;54731;42.600;23.476;2023-11-21T07:41:11;4.57;80.54
67942;SHT31;54731;42.600;23.476;2023-11-21T07:43:37;4.62;80.50
67942;SHT31;54731;42.600;23.476;2023-11-21T07:46:02;4.64;79.97
67942;SHT31;54731;42.600;23.476;2023-11-21T07:48:29;4.53;79.91
67942;SHT31;54731;42.600;23.476;2023-11-21T07:50:55;4.58;80.06
67942;SHT31;54731;42.600;23.476;2023-11-21T07:53:21;4.62;80.26
67942;SHT31;54731;42.600;23.476;2023-11-21T07:55:46;4.70;80.05
67942;SHT31;54731;42.600;23.476;2023-11-21T07:58:11;4.72;79.90
67942;SHT31;54731;42.600;23.476;2023-11-21T08:00:37;4.72;79.64
67942;SHT31;54731;42.600;23.476;2023-11-21T08:03:02;4.72;79.45
67942;SHT31;54731;42.600;23.476;2023-11-21T08:05:28;4.77;79.68
67942;SHT31;54731;42.600;23.476;2023-11-21T08:07:53;4.81;79.86
67942;SHT31;54731;42.600;23.476;2023-11-21T08:10:18;4.89;79.96
67942;SHT31;54731;42.600;23.476;2023-11-21T08:12:43;4.99;79.90
67942;SHT31;54731;42.600;23.476;2023-11-21T08:15:09;5.07;79.57
67942;SHT31;54731;42.600;23.476;2023-11-21T08:17:34;5.14;79.41
67942;SHT31;54731;42.600;23.476;2023-11-21T08:20:00;5.21;79.11
67942;SHT31;54731;42.600;23.476;2023-11-21T08:22:25;5.25;79.15
67942;SHT31;54731;42.600;23.476;2023-11-21T08:24:50;5.28;79.20
67942;SHT31;54731;42.600;23.476;2023-11-21T08:27:16;5.31;79.79
67942;SHT31;54731;42.600;23.476;2023-11-21T08:29:41;5.39;79.95
67942;SHT31;54731;42.600;23.476;2023-11-21T08:32:07;5.40;80.12
67942;SHT31;54731;42.600;23.476;2023-11-21T08:34:32;5.42;79.65
67942;SHT31;54731;42.600;23.476;2023-11-21T08:36:58;5.46;79.72
67942;SHT31;54731;42.600;23.476;2023-11-21T08:39:23;5.49;79.69
67942;SHT31;54731;42.600;23.476;2023-11-21T08:41:48;5.52;79.76
67942;SHT31;54731;42.600;23.476;2023-11-21T08:44:13;5.62;79.69
67942;SHT31;54731;42.600;23.476;2023-11-21T08:46:39;5.60;79.82
67942;SHT31;54731;42.600;23.476;2023-11-21T08:49:04;5.67;79.81
67942;SHT31;54731;42.600;23.476;2023-11-21T08:51:29;5.71;79.45
67942;SHT31;54731;42.600;23.476;2023-11-21T08:53:55;5.77;79.54
67942;SHT31;54731;42.600;23.476;2023-11-21T08:56:20;5.74;79.46
67942;SHT31;54731;42.600;23.476;2023-11-21T08:58:46;5.87;79.42
67942;SHT31;54731;42.600;23.476;2023-11-21T09:01:11;5.98;79.22
67942;SHT31;54731;42.600;23.476;2023-11-21T09:03:36;6.04;78.89
67942;SHT31;54731;42.600;23.476;2023-11-21T09:06:02;6.06;78.30
67942;SHT31;54731;42.600;23.476;2023-11-21T09:08:27;6.00;78.12
67942;SHT31;54731;42.600;23.476;2023-11-21T09:10:52;6.07;78.43
67942;SHT31;54731;42.600;23.476;2023-11-21T09:13:18;6.16;78.41
67942;SHT31;54731;42.600;23.476;2023-11-21T09:15:43;6.28;78.22
67942;SHT31;54731;42.600;23.476;2023-11-21T09:18:09;6.32;78.00
67942;SHT31;54731;42.600;23.476;2023-11-21T09:20:34;6.38;77.84
67942;SHT31;54731;42.600;23.476;2023-11-21T09:22:59;6.46;77.93
67942;SHT31;54731;42.600;23.476;2023-11-21T09:25:25;6.62;77.84
67942;SHT31;54731;42.600;23.476;2023-11-21T09:27:50;6.82;77.72
67942;SHT31;54731;42.600;23.476;2023-11-21T09:30:15;7.00;76.47
67942;SHT31;54731;42.600;23.476;2023-11-21T09:32:41;6.95;76.10
67942;SHT31;54731;42.600;23.476;2023-11-21T09:35:06;7.00;76.33
67942;SHT31;54731;42.600;23.476;2023-11-21T09:37:32;7.00;75.89
67942;SHT31;54731;42.600;23.476;2023-11-21T09:39:57;6.93;75.83
67942;SHT31;54731;42.600;23.476;2023-11-21T09:42:32;7.02;75.69
67942;SHT31;54731;42.600;23.476;2023-11-21T09:45:29;7.10;75.49
67942;SHT31;54731;42.600;23.476;2023-11-21T09:47:54;7.19;75.11
67942;SHT31;54731;42.600;23.476;2023-11-21T09:50:20;7.31;75.17
67942;SHT31;54731;42.600;23.476;2023-11-21T09:55:27;7.34;75.20
67942;SHT31;54731;42.600;23.476;2023-11-21T09:57:54;7.44;75.14
67942;SHT31;54731;42.600;23.476;2023-11-21T10:00:22;7.57;74.96
67942;SHT31;54731;42.600;23.476;2023-11-21T10:02:47;7.70;74.72
67942;SHT31;54731;42.600;23.476;2023-11-21T10:05:13;7.80;74.83
67942;SHT31;54731;42.600;23.476;2023-11-21T10:07:39;7.95;74.06
67942;SHT31;54731;42.600;23.476;2023-11-21T10:10:05;7.97;73.73
67942;SHT31;54731;42.600;23.476;2023-11-21T10:12:32;8.06;73.56
67942;SHT31;54731;42.600;23.476;2023-11-21T10:14:58;8.12;73.40
67942;SHT31;54731;42.600;23.476;2023-11-21T10:17:25;8.18;72.38
67942;SHT31;54731;42.600;23.476;2023-11-21T10:19:50;8.31;72.34
67942;SHT31;54731;42.600;23.476;2023-11-21T10:22:16;8.41;71.64
67942;SHT31;54731;42.600;23.476;2023-11-21T10:24:42;8.41;70.80
67942;SHT31;54731;42.600;23.476;2023-11-21T10:27:07;8.32;70.97
67942;SHT31;54731;42.600;23.476;2023-11-21T10:29:33;8.29;71.51
67942;SHT31;54731;42.600;23.476;2023-11-21T10:31:59;8.41;71.31
67942;SHT31;54731;42.600;23.476;2023-11-21T10:34:24;8.29;71.15
67942;SHT31;54731;42.600;23.476;2023-11-21T10:36:50;8.05;71.27
67942;SHT31;54731;42.600;23.476;2023-11-21T10:39:19;8.21;71.56
67942;SHT31;54731;42.600;23.476;2023-11-21T10:41:45;8.33;71.22
67942;SHT31;54731;42.600;23.476;2023-11-21T10:44:11;8.43;70.86
67942;SHT31;54731;42.600;23.476;2023-11-21T10:46:36;8.63;70.77
67942;SHT31;54731;42.600;23.476;2023-11-21T10:49:01;8.67;69.43
67942;SHT31;54731;42.600;23.476;2023-11-21T10:51:26;8.88;68.94
67942;SHT31;54731;42.600;23.476;2023-11-21T10:53:52;9.06;68.64
67942;SHT31;54731;42.600;23.476;2023-11-21T10:56:18;9.11;67.81
67942;SHT31;54731;42.600;23.476;2023-11-21T10:58:44;9.16;67.84
67942;SHT31;54731;42.600;23.476;2023-11-21T11:01:10;9.13;67.01
67942;SHT31;54731;42.600;23.476;2023-11-21T11:03:36;9.04;67.48
67942;SHT31;54731;42.600;23.476;2023-11-21T11:06:02;9.14;67.55
67942;SHT31;54731;42.600;23.476;2023-11-21T11:08:28;9.20;67.23
67942;SHT31;54731;42.600;23.476;2023-11-21T11:10:53;9.20;66.93
67942;SHT31;54731;42.600;23.476;2023-11-21T11:13:19;9.26;66.49
67942;SHT31;54731;42.600;23.476;2023-11-21T11:15:47;9.14;66.52
67942;SHT31;54731;42.600;23.476;2023-11-21T11:18:15;9.18;66.39
67942;SHT31;54731;42.600;23.476;2023-11-21T11:20:42;9.16;66.58
67942;SHT31;54731;42.600;23.476;2023-11-21T11:26:37;8.96;67.35
67942;SHT31;54731;42.600;23.476;2023-11-21T11:29:10;9.14;66.72
67942;SHT31;54731;42.600;23.476;2023-11-21T11:31:55;9.21;66.46
67942;SHT31;54731;42.600;23.476;2023-11-21T11:34:29;9.26;67.33
67942;SHT31;54731;42.600;23.476;2023-11-21T11:37:03;9.18;67.28
67942;SHT31;54731;42.600;23.476;2023-11-21T11:39:30;9.23;67.53
67942;SHT31;54731;42.600;23.476;2023-11-21T11:41:57;9.26;67.12
67942;SHT31;54731;42.600;23.476;2023-11-21T11:47:13;9.38;66.65
67942;SHT31;54731;42.600;23.476;2023-11-21T11:50:15;9.48;66.02
67942;SHT31;54731;42.600;23.476;2023-11-21T11:52:44;9.54;65.97
67942;SHT31;54731;42.600;23.476;2023-11-21T11:55:11;9.52;66.87
67942;SHT31;54731;42.600;23.476;2023-11-21T11:57:38;9.51;66.59
67942;SHT31;54731;42.600;23.476;2023-11-21T12:00:22;9.55;65.63
67942;SHT31;54731;42.600;23.476;2023-11-21T12:02:49;9.62;65.71
67942;SHT31;54731;42.600;23.476;2023-11-21T12:05:21;9.65;65.80
67942;SHT31;54731;42.600;23.476;2023-11-21T12:10:19;9.72;65.99
67942;SHT31;54731;42.600;23.476;2023-11-21T12:12:49;9.72;65.83
67942;SHT31;54731;42.600;23.476;2023-11-21T12:15:14;9.59;65.47
67942;SHT31;54731;42.600;23.476;2023-11-21T12:17:41;9.55;65.98
67942;SHT31;54731;42.600;23.476;2023-11-21T12:20:07;9.51;66.84
67942;SHT31;54731;42.600;23.476;2023-11-21T12:22:33;9.49;67.32
67942;SHT31;54731;42.600;23.476;2023-11-21T12:24:58;9.41;67.54
67942;SHT31;54731;42.600;23.476;2023-11-21T12:27:23;9.27;67.10
67942;SHT31;54731;42.600;23.476;2023-11-21T12:29:49;9.14;67.31
67942;SHT31;54731;42.600;23.476;2023-11-21T12:32:14;9.13;67.15
67942;SHT31;54731;42.600;23.476;2023-11-21T12:34:39;9.01;66.93
67942;SHT31;54731;42.600;23.476;2023-11-21T12:37:05;9.00;67.91
67942;SHT31;54731;42.600;23.476;2023-11-21T12:39:30;8.88;68.25
67942;SHT31;54731;42.600;23.476;2023-11-21T12:41:55;8.97;69.07
67942;SHT31;54731;42.600;23.476;2023-11-21T12:44:21;8.83;69.49
67942;SHT31;54731;42.600;23.476;2023-11-21T12:46:46;8.86;69.57
67942;SHT31;54731;42.600;23.476;2023-11-21T12:49:12;8.83;69.50
67942;SHT31;54731;42.600;23.476;2023-11-21T12:51:37;8.80;69.80
67942;SHT31;54731;42.600;23.476;2023-11-21T12:54:03;8.88;70.39
67942;SHT31;54731;42.600;23.476;2023-11-21T12:56:28;8.86;70.61
67942;SHT31;54731;42.600;23.476;2023-11-21T12:58:54;8.91;70.55
67942;SHT31;54731;42.600;23.476;2023-11-21T13:01:19;8.91;70.28
67942;SHT31;54731;42.600;23.476;2023-11-21T13:03:48;8.94;70.42
67942;SHT31;54731;42.600;23.476;2023-11-21T13:06:15;8.99;69.91
67942;SHT31;54731;42.600;23.476;2023-11-21T13:08:40;9.00;69.34
67942;SHT31;54731;42.600;23.476;2023-11-21T13:11:06;8.91;69.52
67942;SHT31;54731;42.600;23.476;2023-11-21T13:13:31;8.99;69.99
67942;SHT31;54731;42.600;23.476;2023-11-21T13:16:01;9.01;69.72
67942;SHT31;54731;42.600;23.476;2023-11-21T13:18:28;9.03;69.39
67942;SHT31;54731;42.600;23.476;2023-11-21T13:20:58;9.03;69.27
67942;SHT31;54731;42.600;23.476;2023-11-21T13:23:24;9.01;69.66
67942;SHT31;54731;42.600;23.476;2023-11-21T13:25:50;9.03;69.81
67942;SHT31;54731;42.600;23.476;2023-11-21T13:28:16;9.06;69.57
67942;SHT31;54731;42.600;23.476;2023-11-21T13:30:41;9.08;69.33
67942;SHT31;54731;42.600;23.476;2023-11-21T13:33:08;9.08;69.23
67942;SHT31;54731;42.600;23.476;2023-11-21T13:35:34;9.13;69.34
67942;SHT31;54731;42.600;23.476;2023-11-21T13:38:05;9.10;69.24
67942;SHT31;54731;42.600;23.476;2023-11-21T13:40:30;9.10;69.29
67942;SHT31;54731;42.600;23.476;2023-11-21T13:42:56;9.10;68.76
67942;SHT31;54731;42.600;23.476;2023-11-21T13:45:21;8.97;69.62
67942;SHT31;54731;42.600;23.476;2023-11-21T13:47:47;8.90;70.11
67942;SHT31;54731;42.600;23.476;2023-11-21T13:50:12;8.91;70.27
67942;SHT31;54731;42.600;23.476;2023-11-21T13:52:38;8.87;70.69
67942;SHT31;54731;42.600;23.476;2023-11-21T13:55:03;8.59;71.03
67942;SHT31;54731;42.600;23.476;2023-11-21T13:57:29;8.55;71.48
67942;SHT31;54731;42.600;23.476;2023-11-21T13:59:55;8.62;71.39
67942;SHT31;54731;42.600;23.476;2023-11-21T14:02:20;8.60;71.18
67942;SHT31;54731;42.600;23.476;2023-11-21T14:04:46;8.66;71.26
67942;SHT31;54731;42.600;23.476;2023-11-21T14:07:11;8.69;71.23
67942;SHT31;54731;42.600;23.476;2023-11-21T14:09:36;8.69;71.49
67942;SHT31;54731;42.600;23.476;2023-11-21T14:12:02;8.69;71.61
67942;SHT31;54731;42.600;23.476;2023-11-21T14:14:27;8.70;71.77
67942;SHT31;54731;42.600;23.476;2023-11-21T14:16:53;8.70;71.64
67942;SHT31;54731;42.600;23.476;2023-11-21T14:19:19;8.69;71.82
67942;SHT31;54731;42.600;23.476;2023-11-21T14:21:44;8.64;71.87
67942;SHT31;54731;42.600;23.476;2023-11-21T14:24:11;8.66;71.96
67942;SHT31;54731;42.600;23.476;2023-11-21T14:26:36;8.62;72.37
67942;SHT31;54731;42.600;23.476;2023-11-21T14:29:01;8.56;72.86
67942;SHT31;54731;42.600;23.476;2023-11-21T14:31:27;8.52;73.38
67942;SHT31;54731;42.600;23.476;2023-11-21T14:33:52;8.50;73.31
67942;SHT31;54731;42.600;23.476;2023-11-21T14:36:17;8.52;73.37
67942;SHT31;54731;42.600;23.476;2023-11-21T14:38:43;8.45;73.22
67942;SHT31;54731;42.600;23.476;2023-11-21T14:41:08;8.36;73.46
67942;SHT31;54731;42.600;23.476;2023-11-21T14:43:37;8.32;73.56
67942;SHT31;54731;42.600;23.476;2023-11-21T14:46:02;8.31;73.60
67942;SHT31;54731;42.600;23.476;2023-11-21T14:48:27;8.25;73.99
67942;SHT31;54731;42.600;23.476;2023-11-21T14:50:53;8.15;74.06
67942;SHT31;54731;42.600;23.476;2023-11-21T14:53:18;8.13;73.83
67942;SHT31;54731;42.600;23.476;2023-11-21T14:55:43;8.03;73.93
67942;SHT31;54731;42.600;23.476;2023-11-21T14:58:09;8.02;73.63
67942;SHT31;54731;42.600;23.476;2023-11-21T15:00:35;7.95;73.83
67942;SHT31;54731;42.600;23.476;2023-11-21T15:03:03;7.95;73.33
67942;SHT31;54731;42.600;23.476;2023-11-21T15:05:28;7.95;73.48
67942;SHT31;54731;42.600;23.476;2023-11-21T15:07:54;7.95;73.41
67942;SHT31;54731;42.600;23.476;2023-11-21T15:10:20;7.91;72.83
67942;SHT31;54731;42.600;23.476;2023-11-21T15:12:45;7.90;73.04
67942;SHT31;54731;42.600;23.476;2023-11-21T15:15:10;7.90;72.80
67942;SHT31;54731;42.600;23.476;2023-11-21T15:17:36;7.91;72.91
67942;SHT31;54731;42.600;23.476;2023-11-21T15:20:02;7.95;71.79
67942;SHT31;54731;42.600;23.476;2023-11-21T15:22:27;7.95;71.72
67942;SHT31;54731;42.600;23.476;2023-11-21T15:24:53;7.88;71.74
67942;SHT31;54731;42.600;23.476;2023-11-21T15:27:18;7.74;74.39
67942;SHT31;54731;42.600;23.476;2023-11-21T15:29:43;7.75;74.78
67942;SHT31;54731;42.600;23.476;2023-11-21T15:32:09;7.67;75.21